Arltunga, Northern Territory

5:13 PM ACST on October 31, 2014 (GMT +0930)
Alice Springs | Change Station
CLOSE
Current Station
Airport
Location: Alice Springs,
Elevation: 1795 ft
Nearby Weather Stations

Elev 1795 ft 23.80 °S, 133.89 °E | Updated 13 minutes ago

Clear
Clear
88 °F
Feels Like 88 °F
N
15
Wind Variable Wind from SW

Today
High -- | Low -- °F
--% Chance of Precip.
Yesterday
High -- | Low -- °F
Precip. -- in
5:46 AM 6:43 PM
First Quarter, 52% visible
Pressure 29.86 in
Visibility -9999.0 miles
Clouds
Dew Point 41 °F
Humidity 19%
Rainfall 0.00 in
Snow Depth Not available.
UV Not available.
Pollen Not available.
Air Quality Not available.
Flu Activity Not available.
METAR YBAS 310730Z 23013KT CAVOK 31/05 Q1011 RMK 1AC105 3AS125 7AS155 DISTANT PRECIPITATION

More Conditions Fewer Conditions

Pressure 29.86 in
Visibility -9999.0 miles
Clouds
Dew Point 41 °F
Humidity 19%
Rainfall 0.00 in
Snow Depth Not available.
UV Not available.
Pollen Not available.
Air Quality Not available.
Flu Activity Not available.
METAR YBAS 310730Z 23013KT CAVOK 31/05 Q1011 RMK 1AC105 3AS125 7AS155 DISTANT PRECIPITATION

More Conditions Fewer Conditions

10-Day Weather Forecast

Almanac

Astronomy

Oct. 31, 2014 Rise Set
Actual Time
Civil Twilight
Nautical Twilight
Astronomical Twilight
Moon
Length of Visible Light
Length of Day
Tomorrow will be .
, % of the Moon is Illuminated

Today's Extremes

Country Highs Country Lows

Community

WunderPhotos

Upload Photos

1,766,573 photos uploaded!

WunderBlogs® & News

Nearby

Air Quality

  Air Quality AQ Index Pollutant
Not available.

Snow Depth

Station Depth Elevation

Earthquake Activity

City Distance Mag. Time & Date
Minimum magnitude displayed is 2.5.

Coastal Water Temperatures

Place Temperature

Nearby Weather Stations